sensor_id;sensor_type;location;lat;lon;timestamp;temperature;humidity
30678;DHT22;17437;47.188;8.896;2022-12-18T00:00:56;-1.10;99.90
30678;DHT22;17437;47.188;8.896;2022-12-18T00:03:27;-1.10;99.90
30678;DHT22;17437;47.188;8.896;2022-12-18T00:05:59;-1.00;99.90
30678;DHT22;17437;47.188;8.896;2022-12-18T00:08:31;-1.00;99.90
30678;DHT22;17437;47.188;8.896;2022-12-18T00:11:05;-1.10;99.90
30678;DHT22;17437;47.188;8.896;2022-12-18T00:13:38;-1.10;99.90
30678;DHT22;17437;47.188;8.896;2022-12-18T00:16:12;-1.10;99.90
30678;DHT22;17437;47.188;8.896;2022-12-18T00:18:44;-1.20;99.90
30678;DHT22;17437;47.188;8.896;2022-12-18T00:21:16;-1.20;99.90
30678;DHT22;17437;47.188;8.896;2022-12-18T00:23:48;-1.20;99.90
30678;DHT22;17437;47.188;8.896;2022-12-18T00:26:23;-1.20;99.90
30678;DHT22;17437;47.188;8.896;2022-12-18T00:28:57;-1.20;99.90
30678;DHT22;17437;47.188;8.896;2022-12-18T00:31:28;-1.20;99.90
30678;DHT22;17437;47.188;8.896;2022-12-18T00:33:59;-1.20;99.90
30678;DHT22;17437;47.188;8.896;2022-12-18T00:36:33;-1.20;99.90
30678;DHT22;17437;47.188;8.896;2022-12-18T00:39:05;-1.30;99.90
30678;DHT22;17437;47.188;8.896;2022-12-18T00:41:37;-1.30;99.90
30678;DHT22;17437;47.188;8.896;2022-12-18T00:44:26;-1.40;99.90
30678;DHT22;17437;47.188;8.896;2022-12-18T00:46:58;-1.40;99.90
30678;DHT22;17437;47.188;8.896;2022-12-18T00:49:29;-1.40;99.90
30678;DHT22;17437;47.188;8.896;2022-12-18T00:52:01;-1.40;99.90
30678;DHT22;17437;47.188;8.896;2022-12-18T00:54:32;-1.40;99.90
30678;DHT22;17437;47.188;8.896;2022-12-18T00:57:03;-1.40;99.90
30678;DHT22;17437;47.188;8.896;2022-12-18T00:59:35;-1.50;99.90
30678;DHT22;17437;47.188;8.896;2022-12-18T01:02:06;-1.50;99.90
30678;DHT22;17437;47.188;8.896;2022-12-18T01:04:38;-1.60;99.90
30678;DHT22;17437;47.188;8.896;2022-12-18T01:07:09;-1.60;99.90
30678;DHT22;17437;47.188;8.896;2022-12-18T01:09:40;-1.60;99.90
30678;DHT22;17437;47.188;8.896;2022-12-18T01:12:12;-1.70;99.90
30678;DHT22;17437;47.188;8.896;2022-12-18T01:14:43;-1.70;99.90
30678;DHT22;17437;47.188;8.896;2022-12-18T01:17:14;-1.80;99.90
30678;DHT22;17437;47.188;8.896;2022-12-18T01:19:46;-1.90;99.90
30678;DHT22;17437;47.188;8.896;2022-12-18T01:22:17;-1.80;99.90
30678;DHT22;17437;47.188;8.896;2022-12-18T01:24:48;-2.00;99.90
30678;DHT22;17437;47.188;8.896;2022-12-18T01:27:20;-2.10;99.90
30678;DHT22;17437;47.188;8.896;2022-12-18T01:29:52;-2.30;99.90
30678;DHT22;17437;47.188;8.896;2022-12-18T01:32:23;-2.40;99.90
30678;DHT22;17437;47.188;8.896;2022-12-18T01:34:55;-2.50;99.90
30678;DHT22;17437;47.188;8.896;2022-12-18T01:37:26;-2.60;99.90
30678;DHT22;17437;47.188;8.896;2022-12-18T01:39:57;-2.70;99.90
30678;DHT22;17437;47.188;8.896;2022-12-18T01:42:29;-2.80;99.90
30678;DHT22;17437;47.188;8.896;2022-12-18T01:45:04;-2.90;99.90
30678;DHT22;17437;47.188;8.896;2022-12-18T01:47:41;-2.90;99.90
30678;DHT22;17437;47.188;8.896;2022-12-18T01:50:17;-2.90;99.90
30678;DHT22;17437;47.188;8.896;2022-12-18T01:52:51;-2.90;99.90
30678;DHT22;17437;47.188;8.896;2022-12-18T01:55:26;-3.00;99.90
30678;DHT22;17437;47.188;8.896;2022-12-18T01:57:59;-2.90;99.90
30678;DHT22;17437;47.188;8.896;2022-12-18T02:00:31;-2.90;99.90
30678;DHT22;17437;47.188;8.896;2022-12-18T02:03:03;-2.80;99.90
30678;DHT22;17437;47.188;8.896;2022-12-18T02:05:40;-2.80;99.90
30678;DHT22;17437;47.188;8.896;2022-12-18T02:08:15;-2.70;99.90
30678;DHT22;17437;47.188;8.896;2022-12-18T02:10:51;-2.70;99.90
30678;DHT22;17437;47.188;8.896;2022-12-18T02:13:27;-2.70;99.90
30678;DHT22;17437;47.188;8.896;2022-12-18T02:16:01;-2.70;99.90
30678;DHT22;17437;47.188;8.896;2022-12-18T02:18:35;-2.80;99.90
30678;DHT22;17437;47.188;8.896;2022-12-18T02:21:12;-2.70;99.90
30678;DHT22;17437;47.188;8.896;2022-12-18T02:23:50;-2.70;99.90
30678;DHT22;17437;47.188;8.896;2022-12-18T02:26:23;-2.70;99.90
30678;DHT22;17437;47.188;8.896;2022-12-18T02:28:58;-2.70;99.90
30678;DHT22;17437;47.188;8.896;2022-12-18T02:31:31;-2.70;99.90
30678;DHT22;17437;47.188;8.896;2022-12-18T02:34:05;-2.70;99.90
30678;DHT22;17437;47.188;8.896;2022-12-18T02:36:40;-2.60;99.90
30678;DHT22;17437;47.188;8.896;2022-12-18T02:39:14;-2.50;99.90
30678;DHT22;17437;47.188;8.896;2022-12-18T02:41:48;-2.50;99.90
30678;DHT22;17437;47.188;8.896;2022-12-18T02:44:20;-2.40;99.90
30678;DHT22;17437;47.188;8.896;2022-12-18T02:46:53;-2.40;99.90
30678;DHT22;17437;47.188;8.896;2022-12-18T02:49:32;-2.30;99.90
30678;DHT22;17437;47.188;8.896;2022-12-18T02:52:09;-2.30;99.90
30678;DHT22;17437;47.188;8.896;2022-12-18T02:54:51;-2.20;99.90
30678;DHT22;17437;47.188;8.896;2022-12-18T02:57:27;-2.20;99.90
30678;DHT22;17437;47.188;8.896;2022-12-18T03:00:00;-2.10;99.90
30678;DHT22;17437;47.188;8.896;2022-12-18T03:02:37;-2.10;99.90
30678;DHT22;17437;47.188;8.896;2022-12-18T03:05:12;-2.00;99.90
30678;DHT22;17437;47.188;8.896;2022-12-18T03:07:47;-2.00;99.90
30678;DHT22;17437;47.188;8.896;2022-12-18T03:10:23;-2.00;99.90
30678;DHT22;17437;47.188;8.896;2022-12-18T03:12:58;-1.90;99.90
30678;DHT22;17437;47.188;8.896;2022-12-18T03:15:33;-1.90;99.90
30678;DHT22;17437;47.188;8.896;2022-12-18T03:18:07;-1.80;99.90
30678;DHT22;17437;47.188;8.896;2022-12-18T03:20:41;-1.80;99.90
30678;DHT22;17437;47.188;8.896;2022-12-18T03:23:15;-1.80;99.90
30678;DHT22;17437;47.188;8.896;2022-12-18T03:25:48;-1.80;99.90
30678;DHT22;17437;47.188;8.896;2022-12-18T03:28:22;-1.70;99.90
30678;DHT22;17437;47.188;8.896;2022-12-18T03:30:56;-1.70;99.90
30678;DHT22;17437;47.188;8.896;2022-12-18T03:33:30;-1.80;99.90
30678;DHT22;17437;47.188;8.896;2022-12-18T03:36:03;-1.70;99.90
30678;DHT22;17437;47.188;8.896;2022-12-18T03:38:34;-1.70;99.90
30678;DHT22;17437;47.188;8.896;2022-12-18T03:41:10;-1.80;99.90
30678;DHT22;17437;47.188;8.896;2022-12-18T03:43:45;-2.00;99.90
30678;DHT22;17437;47.188;8.896;2022-12-18T03:46:20;-2.00;99.90
30678;DHT22;17437;47.188;8.896;2022-12-18T03:48:56;-1.90;99.90
30678;DHT22;17437;47.188;8.896;2022-12-18T03:51:30;-2.00;99.90
30678;DHT22;17437;47.188;8.896;2022-12-18T03:54:03;-1.90;99.90
30678;DHT22;17437;47.188;8.896;2022-12-18T03:56:38;-2.00;99.90
30678;DHT22;17437;47.188;8.896;2022-12-18T03:59:11;-2.00;99.90
30678;DHT22;17437;47.188;8.896;2022-12-18T04:01:46;-2.00;99.90
30678;DHT22;17437;47.188;8.896;2022-12-18T04:04:19;-2.00;99.90
30678;DHT22;17437;47.188;8.896;2022-12-18T04:06:51;-2.10;99.90
30678;DHT22;17437;47.188;8.896;2022-12-18T04:09:24;-2.10;99.90
30678;DHT22;17437;47.188;8.896;2022-12-18T04:11:56;-2.10;99.90
30678;DHT22;17437;47.188;8.896;2022-12-18T04:14:27;-2.00;99.90
30678;DHT22;17437;47.188;8.896;2022-12-18T04:16:58;-2.00;99.90
30678;DHT22;17437;47.188;8.896;2022-12-18T04:19:29;-2.00;99.90
30678;DHT22;17437;47.188;8.896;2022-12-18T04:22:01;-2.10;99.90
30678;DHT22;17437;47.188;8.896;2022-12-18T04:24:33;-2.10;99.90
30678;DHT22;17437;47.188;8.896;2022-12-18T04:27:04;-2.00;99.90
30678;DHT22;17437;47.188;8.896;2022-12-18T04:29:36;-2.00;99.90
30678;DHT22;17437;47.188;8.896;2022-12-18T04:32:08;-2.00;99.90
30678;DHT22;17437;47.188;8.896;2022-12-18T04:34:40;-2.00;99.90
30678;DHT22;17437;47.188;8.896;2022-12-18T04:37:11;-2.00;99.90
30678;DHT22;17437;47.188;8.896;2022-12-18T04:39:43;-1.90;99.90
30678;DHT22;17437;47.188;8.896;2022-12-18T04:42:15;-1.90;99.90
30678;DHT22;17437;47.188;8.896;2022-12-18T04:44:46;-1.80;99.90
30678;DHT22;17437;47.188;8.896;2022-12-18T04:47:16;-1.80;99.90
30678;DHT22;17437;47.188;8.896;2022-12-18T04:49:47;-1.70;99.90
30678;DHT22;17437;47.188;8.896;2022-12-18T04:52:19;-1.70;99.90
30678;DHT22;17437;47.188;8.896;2022-12-18T04:54:51;-1.60;99.90
30678;DHT22;17437;47.188;8.896;2022-12-18T04:57:23;-1.60;99.90
30678;DHT22;17437;47.188;8.896;2022-12-18T04:59:54;-1.60;99.90
30678;DHT22;17437;47.188;8.896;2022-12-18T05:02:26;-1.50;99.90
30678;DHT22;17437;47.188;8.896;2022-12-18T05:04:57;-1.50;99.90
30678;DHT22;17437;47.188;8.896;2022-12-18T05:07:28;-1.50;99.90
30678;DHT22;17437;47.188;8.896;2022-12-18T05:10:00;-1.50;99.90
30678;DHT22;17437;47.188;8.896;2022-12-18T05:12:32;-1.50;99.90
30678;DHT22;17437;47.188;8.896;2022-12-18T05:15:06;-1.50;99.90
30678;DHT22;17437;47.188;8.896;2022-12-18T05:17:37;-1.50;99.90
30678;DHT22;17437;47.188;8.896;2022-12-18T05:20:10;-1.50;99.90
30678;DHT22;17437;47.188;8.896;2022-12-18T05:22:42;-1.60;99.90
30678;DHT22;17437;47.188;8.896;2022-12-18T05:25:12;-1.70;99.90
30678;DHT22;17437;47.188;8.896;2022-12-18T05:27:43;-1.80;99.90
30678;DHT22;17437;47.188;8.896;2022-12-18T05:30:15;-1.80;99.90
30678;DHT22;17437;47.188;8.896;2022-12-18T05:32:46;-1.90;99.90
30678;DHT22;17437;47.188;8.896;2022-12-18T05:35:18;-2.00;99.90
30678;DHT22;17437;47.188;8.896;2022-12-18T05:37:49;-2.00;99.90
30678;DHT22;17437;47.188;8.896;2022-12-18T05:40:21;-2.00;99.90
30678;DHT22;17437;47.188;8.896;2022-12-18T05:42:52;-2.00;99.90
30678;DHT22;17437;47.188;8.896;2022-12-18T05:45:23;-2.10;99.90
30678;DHT22;17437;47.188;8.896;2022-12-18T05:47:55;-2.10;99.90
30678;DHT22;17437;47.188;8.896;2022-12-18T05:50:26;-2.20;99.90
30678;DHT22;17437;47.188;8.896;2022-12-18T05:52:57;-2.30;99.90
30678;DHT22;17437;47.188;8.896;2022-12-18T05:55:29;-2.30;99.90
30678;DHT22;17437;47.188;8.896;2022-12-18T05:58:00;-2.30;99.90
30678;DHT22;17437;47.188;8.896;2022-12-18T06:00:34;-2.40;99.90
30678;DHT22;17437;47.188;8.896;2022-12-18T06:03:06;-2.40;99.90
30678;DHT22;17437;47.188;8.896;2022-12-18T06:05:39;-2.50;99.90
30678;DHT22;17437;47.188;8.896;2022-12-18T06:08:11;-2.60;99.90
30678;DHT22;17437;47.188;8.896;2022-12-18T06:10:45;-2.60;99.90
30678;DHT22;17437;47.188;8.896;2022-12-18T06:13:16;-2.60;99.90
30678;DHT22;17437;47.188;8.896;2022-12-18T06:15:47;-2.70;99.90
30678;DHT22;17437;47.188;8.896;2022-12-18T06:18:18;-2.70;99.90
30678;DHT22;17437;47.188;8.896;2022-12-18T06:20:56;-2.70;99.90
30678;DHT22;17437;47.188;8.896;2022-12-18T06:23:28;-2.60;99.90
30678;DHT22;17437;47.188;8.896;2022-12-18T06:26:03;-2.70;99.90
30678;DHT22;17437;47.188;8.896;2022-12-18T06:28:35;-2.80;99.90
30678;DHT22;17437;47.188;8.896;2022-12-18T06:31:08;-2.90;99.90
30678;DHT22;17437;47.188;8.896;2022-12-18T06:33:40;-2.90;99.90
30678;DHT22;17437;47.188;8.896;2022-12-18T06:36:13;-2.90;99.90
30678;DHT22;17437;47.188;8.896;2022-12-18T06:38:45;-2.80;99.90
30678;DHT22;17437;47.188;8.896;2022-12-18T06:41:19;-2.80;99.90
30678;DHT22;17437;47.188;8.896;2022-12-18T06:43:50;-2.70;99.90
30678;DHT22;17437;47.188;8.896;2022-12-18T06:46:23;-2.70;99.90
30678;DHT22;17437;47.188;8.896;2022-12-18T06:48:55;-2.60;99.90
30678;DHT22;17437;47.188;8.896;2022-12-18T06:51:27;-2.50;99.90
30678;DHT22;17437;47.188;8.896;2022-12-18T06:53:58;-2.50;99.90
30678;DHT22;17437;47.188;8.896;2022-12-18T06:56:29;-2.40;99.90
30678;DHT22;17437;47.188;8.896;2022-12-18T06:59:01;-2.40;99.90
30678;DHT22;17437;47.188;8.896;2022-12-18T07:01:32;-2.30;99.90
30678;DHT22;17437;47.188;8.896;2022-12-18T07:04:04;-2.20;99.90
30678;DHT22;17437;47.188;8.896;2022-12-18T07:06:35;-2.20;99.90
30678;DHT22;17437;47.188;8.896;2022-12-18T07:09:07;-2.20;99.90
30678;DHT22;17437;47.188;8.896;2022-12-18T07:11:38;-2.20;99.90
30678;DHT22;17437;47.188;8.896;2022-12-18T07:14:09;-2.10;99.90
30678;DHT22;17437;47.188;8.896;2022-12-18T07:16:40;-2.10;99.90
30678;DHT22;17437;47.188;8.896;2022-12-18T07:19:12;-2.10;99.90
30678;DHT22;17437;47.188;8.896;2022-12-18T07:21:43;-2.00;99.90
30678;DHT22;17437;47.188;8.896;2022-12-18T07:24:15;-2.00;99.90
30678;DHT22;17437;47.188;8.896;2022-12-18T07:26:47;-1.90;99.90
30678;DHT22;17437;47.188;8.896;2022-12-18T07:29:18;-1.90;99.90
30678;DHT22;17437;47.188;8.896;2022-12-18T07:31:49;-1.80;99.90
30678;DHT22;17437;47.188;8.896;2022-12-18T07:34:21;-1.80;99.90
30678;DHT22;17437;47.188;8.896;2022-12-18T07:36:52;-1.70;99.90
30678;DHT22;17437;47.188;8.896;2022-12-18T07:39:24;-1.70;99.90
30678;DHT22;17437;47.188;8.896;2022-12-18T07:41:54;-1.60;99.90
30678;DHT22;17437;47.188;8.896;2022-12-18T07:44:43;-1.50;99.90
30678;DHT22;17437;47.188;8.896;2022-12-18T07:47:14;-1.40;99.90
30678;DHT22;17437;47.188;8.896;2022-12-18T07:49:46;-1.30;99.90
30678;DHT22;17437;47.188;8.896;2022-12-18T07:52:17;-1.30;99.90
30678;DHT22;17437;47.188;8.896;2022-12-18T07:54:50;-1.30;99.90
30678;DHT22;17437;47.188;8.896;2022-12-18T07:57:22;-1.20;99.90
30678;DHT22;17437;47.188;8.896;2022-12-18T07:59:54;-1.40;99.90
30678;DHT22;17437;47.188;8.896;2022-12-18T08:02:26;-1.40;99.90
30678;DHT22;17437;47.188;8.896;2022-12-18T08:04:57;-1.40;99.90
30678;DHT22;17437;47.188;8.896;2022-12-18T08:07:29;-1.40;99.90
30678;DHT22;17437;47.188;8.896;2022-12-18T08:10:01;-1.40;99.90
30678;DHT22;17437;47.188;8.896;2022-12-18T08:12:33;-1.50;99.90
30678;DHT22;17437;47.188;8.896;2022-12-18T08:15:08;-1.50;99.90
30678;DHT22;17437;47.188;8.896;2022-12-18T08:17:39;-1.50;99.90
30678;DHT22;17437;47.188;8.896;2022-12-18T08:20:13;-1.60;99.90
30678;DHT22;17437;47.188;8.896;2022-12-18T08:22:45;-1.60;99.90
30678;DHT22;17437;47.188;8.896;2022-12-18T08:25:17;-1.80;99.90
30678;DHT22;17437;47.188;8.896;2022-12-18T08:27:48;-1.90;99.90
30678;DHT22;17437;47.188;8.896;2022-12-18T08:30:19;-2.00;99.90
30678;DHT22;17437;47.188;8.896;2022-12-18T08:32:52;-2.10;99.90
30678;DHT22;17437;47.188;8.896;2022-12-18T08:35:24;-2.20;99.90
30678;DHT22;17437;47.188;8.896;2022-12-18T08:37:55;-2.20;99.90
30678;DHT22;17437;47.188;8.896;2022-12-18T08:40:26;-2.20;99.90
30678;DHT22;17437;47.188;8.896;2022-12-18T08:42:56;-2.10;99.90
30678;DHT22;17437;47.188;8.896;2022-12-18T08:45:45;-2.10;99.90
30678;DHT22;17437;47.188;8.896;2022-12-18T08:48:17;-1.90;99.90
30678;DHT22;17437;47.188;8.896;2022-12-18T08:50:55;-1.70;99.90
30678;DHT22;17437;47.188;8.896;2022-12-18T08:53:27;-1.70;99.90
30678;DHT22;17437;47.188;8.896;2022-12-18T08:56:00;-1.60;99.90
30678;DHT22;17437;47.188;8.896;2022-12-18T08:58:32;-1.40;99.90
30678;DHT22;17437;47.188;8.896;2022-12-18T09:01:05;-1.20;99.90
30678;DHT22;17437;47.188;8.896;2022-12-18T09:03:37;-1.00;99.90
30678;DHT22;17437;47.188;8.896;2022-12-18T09:06:13;-1.00;99.90
30678;DHT22;17437;47.188;8.896;2022-12-18T09:08:42;-0.90;99.90
30678;DHT22;17437;47.188;8.896;2022-12-18T09:11:18;-0.80;99.90
30678;DHT22;17437;47.188;8.896;2022-12-18T09:13:48;-0.80;99.90
30678;DHT22;17437;47.188;8.896;2022-12-18T09:16:19;-0.70;99.90
30678;DHT22;17437;47.188;8.896;2022-12-18T09:18:54;-0.60;99.90
30678;DHT22;17437;47.188;8.896;2022-12-18T09:21:28;-0.50;99.90
30678;DHT22;17437;47.188;8.896;2022-12-18T09:24:01;-0.50;99.90
30678;DHT22;17437;47.188;8.896;2022-12-18T09:26:32;-0.50;99.90
30678;DHT22;17437;47.188;8.896;2022-12-18T09:29:04;-0.60;99.90
30678;DHT22;17437;47.188;8.896;2022-12-18T09:31:37;-0.60;99.90
30678;DHT22;17437;47.188;8.896;2022-12-18T09:34:09;-0.60;99.90
30678;DHT22;17437;47.188;8.896;2022-12-18T09:36:41;-0.60;99.90
30678;DHT22;17437;47.188;8.896;2022-12-18T09:39:13;-0.60;99.90
30678;DHT22;17437;47.188;8.896;2022-12-18T09:41:46;-0.70;99.90
30678;DHT22;17437;47.188;8.896;2022-12-18T09:44:28;-0.80;99.90
30678;DHT22;17437;47.188;8.896;2022-12-18T09:47:11;-0.70;99.90
30678;DHT22;17437;47.188;8.896;2022-12-18T09:49:44;-0.60;99.90
30678;DHT22;17437;47.188;8.896;2022-12-18T09:52:20;-0.30;99.90
30678;DHT22;17437;47.188;8.896;2022-12-18T09:54:56;-0.10;99.90
30678;DHT22;17437;47.188;8.896;2022-12-18T09:57:29;-0.10;99.90
30678;DHT22;17437;47.188;8.896;2022-12-18T10:00:08;-0.20;99.90
30678;DHT22;17437;47.188;8.896;2022-12-18T10:02:39;-0.20;99.90
30678;DHT22;17437;47.188;8.896;2022-12-18T10:05:14;-0.20;99.90
30678;DHT22;17437;47.188;8.896;2022-12-18T10:07:55;-0.40;99.90
30678;DHT22;17437;47.188;8.896;2022-12-18T10:10:33;-0.50;99.90
30678;DHT22;17437;47.188;8.896;2022-12-18T10:13:11;-0.60;99.90
30678;DHT22;17437;47.188;8.896;2022-12-18T10:15:48;-0.70;99.90
30678;DHT22;17437;47.188;8.896;2022-12-18T10:18:28;-0.80;99.90
30678;DHT22;17437;47.188;8.896;2022-12-18T10:21:02;-0.80;99.90
30678;DHT22;17437;47.188;8.896;2022-12-18T10:23:37;-0.80;99.90
30678;DHT22;17437;47.188;8.896;2022-12-18T10:26:10;-0.80;99.90
30678;DHT22;17437;47.188;8.896;2022-12-18T10:28:44;-0.80;99.90
30678;DHT22;17437;47.188;8.896;2022-12-18T10:31:19;-0.70;99.90
30678;DHT22;17437;47.188;8.896;2022-12-18T10:33:53;-0.50;99.90
30678;DHT22;17437;47.188;8.896;2022-12-18T10:36:25;-0.30;99.90
30678;DHT22;17437;47.188;8.896;2022-12-18T10:39:03;-0.20;99.90
30678;DHT22;17437;47.188;8.896;2022-12-18T10:41:36;0.00;99.90
30678;DHT22;17437;47.188;8.896;2022-12-18T10:44:18;0.00;99.90
30678;DHT22;17437;47.188;8.896;2022-12-18T10:46:53;0.00;99.90
30678;DHT22;17437;47.188;8.896;2022-12-18T10:49:27;0.20;99.90
30678;DHT22;17437;47.188;8.896;2022-12-18T10:52:11;0.30;99.90
30678;DHT22;17437;47.188;8.896;2022-12-18T10:54:45;0.30;99.90
30678;DHT22;17437;47.188;8.896;2022-12-18T10:57:27;0.30;99.90
30678;DHT22;17437;47.188;8.896;2022-12-18T10:59:52;0.30;99.90
30678;DHT22;17437;47.188;8.896;2022-12-18T11:02:33;0.30;99.90
30678;DHT22;17437;47.188;8.896;2022-12-18T11:05:09;0.40;99.90
30678;DHT22;17437;47.188;8.896;2022-12-18T11:07:50;0.40;99.90
30678;DHT22;17437;47.188;8.896;2022-12-18T11:10:26;0.40;99.90
30678;DHT22;17437;47.188;8.896;2022-12-18T11:13:11;0.40;99.90
30678;DHT22;17437;47.188;8.896;2022-12-18T11:15:43;0.50;99.90
30678;DHT22;17437;47.188;8.896;2022-12-18T11:18:20;0.50;99.90
30678;DHT22;17437;47.188;8.896;2022-12-18T11:20:54;0.40;99.90
30678;DHT22;17437;47.188;8.896;2022-12-18T11:23:28;0.40;99.90
30678;DHT22;17437;47.188;8.896;2022-12-18T11:26:11;0.40;99.90
30678;DHT22;17437;47.188;8.896;2022-12-18T11:28:45;0.40;99.90
30678;DHT22;17437;47.188;8.896;2022-12-18T11:31:22;0.40;99.90
30678;DHT22;17437;47.188;8.896;2022-12-18T11:33:59;0.40;99.90
30678;DHT22;17437;47.188;8.896;2022-12-18T11:36:39;0.50;99.90
30678;DHT22;17437;47.188;8.896;2022-12-18T11:39:12;0.60;99.90
30678;DHT22;17437;47.188;8.896;2022-12-18T11:41:48;0.70;99.90
30678;DHT22;17437;47.188;8.896;2022-12-18T11:44:44;0.70;99.90
30678;DHT22;17437;47.188;8.896;2022-12-18T11:47:21;0.60;99.90
30678;DHT22;17437;47.188;8.896;2022-12-18T11:49:54;0.50;99.90
30678;DHT22;17437;47.188;8.896;2022-12-18T11:52:30;0.50;99.90
30678;DHT22;17437;47.188;8.896;2022-12-18T11:55:08;0.60;99.90
30678;DHT22;17437;47.188;8.896;2022-12-18T11:57:40;0.70;99.90
30678;DHT22;17437;47.188;8.896;2022-12-18T12:00:15;0.70;99.90
30678;DHT22;17437;47.188;8.896;2022-12-18T12:06:12;0.90;99.90
30678;DHT22;17437;47.188;8.896;2022-12-18T12:08:58;0.90;99.90
30678;DHT22;17437;47.188;8.896;2022-12-18T12:11:37;0.80;99.90
30678;DHT22;17437;47.188;8.896;2022-12-18T12:14:24;0.90;99.90
30678;DHT22;17437;47.188;8.896;2022-12-18T12:16:58;1.00;99.90
30678;DHT22;17437;47.188;8.896;2022-12-18T12:19:38;1.20;99.90
30678;DHT22;17437;47.188;8.896;2022-12-18T12:22:13;1.20;99.90
30678;DHT22;17437;47.188;8.896;2022-12-18T12:24:52;1.30;99.90
30678;DHT22;17437;47.188;8.896;2022-12-18T12:27:27;1.30;99.90
30678;DHT22;17437;47.188;8.896;2022-12-18T12:30:04;1.30;99.90
30678;DHT22;17437;47.188;8.896;2022-12-18T12:32:45;1.30;99.90
30678;DHT22;17437;47.188;8.896;2022-12-18T12:35:25;1.30;99.90
30678;DHT22;17437;47.188;8.896;2022-12-18T12:38:02;1.30;99.90
30678;DHT22;17437;47.188;8.896;2022-12-18T12:40:41;1.30;99.90
30678;DHT22;17437;47.188;8.896;2022-12-18T12:43:21;1.40;99.90
30678;DHT22;17437;47.188;8.896;2022-12-18T12:49:26;1.50;99.90
30678;DHT22;17437;47.188;8.896;2022-12-18T12:52:00;1.50;99.90
30678;DHT22;17437;47.188;8.896;2022-12-18T12:54:33;1.50;99.90
30678;DHT22;17437;47.188;8.896;2022-12-18T12:57:09;1.60;99.90
30678;DHT22;17437;47.188;8.896;2022-12-18T12:59:45;1.60;99.90
30678;DHT22;17437;47.188;8.896;2022-12-18T13:02:21;1.60;99.90
30678;DHT22;17437;47.188;8.896;2022-12-18T13:04:57;1.60;99.90
30678;DHT22;17437;47.188;8.896;2022-12-18T13:07:33;1.70;99.90
30678;DHT22;17437;47.188;8.896;2022-12-18T13:10:33;1.70;99.90
30678;DHT22;17437;47.188;8.896;2022-12-18T13:13:07;1.70;99.90
30678;DHT22;17437;47.188;8.896;2022-12-18T13:15:42;1.80;99.90
30678;DHT22;17437;47.188;8.896;2022-12-18T13:18:20;1.70;99.90
30678;DHT22;17437;47.188;8.896;2022-12-18T13:21:02;1.60;99.90
30678;DHT22;17437;47.188;8.896;2022-12-18T13:23:35;1.60;99.90
30678;DHT22;17437;47.188;8.896;2022-12-18T13:26:31;1.60;99.90
30678;DHT22;17437;47.188;8.896;2022-12-18T13:29:04;1.60;99.90
30678;DHT22;17437;47.188;8.896;2022-12-18T13:32:00;1.50;99.90
30678;DHT22;17437;47.188;8.896;2022-12-18T13:34:31;1.50;99.90
30678;DHT22;17437;47.188;8.896;2022-12-18T13:43:41;1.50;99.90
30678;DHT22;17437;47.188;8.896;2022-12-18T13:46:22;1.40;99.90
30678;DHT22;17437;47.188;8.896;2022-12-18T13:48:58;1.40;99.90
30678;DHT22;17437;47.188;8.896;2022-12-18T13:51:32;1.40;99.90
30678;DHT22;17437;47.188;8.896;2022-12-18T13:54:13;1.40;99.90
30678;DHT22;17437;47.188;8.896;2022-12-18T13:56:47;1.30;99.90
30678;DHT22;17437;47.188;8.896;2022-12-18T13:59:21;1.30;99.90
30678;DHT22;17437;47.188;8.896;2022-12-18T14:01:56;1.20;99.90
30678;DHT22;17437;47.188;8.896;2022-12-18T14:04:37;1.20;99.90
30678;DHT22;17437;47.188;8.896;2022-12-18T14:07:14;1.10;99.90
30678;DHT22;17437;47.188;8.896;2022-12-18T14:09:51;1.20;99.90
30678;DHT22;17437;47.188;8.896;2022-12-18T14:12:26;1.10;99.90
30678;DHT22;17437;47.188;8.896;2022-12-18T14:15:21;1.00;99.90
30678;DHT22;17437;47.188;8.896;2022-12-18T14:17:58;1.00;99.90
30678;DHT22;17437;47.188;8.896;2022-12-18T14:20:32;0.90;99.90
30678;DHT22;17437;47.188;8.896;2022-12-18T14:23:03;0.90;99.90
30678;DHT22;17437;47.188;8.896;2022-12-18T14:25:35;0.90;99.90
30678;DHT22;17437;47.188;8.896;2022-12-18T14:28:12;0.90;99.90
30678;DHT22;17437;47.188;8.896;2022-12-18T14:30:45;0.80;99.90
30678;DHT22;17437;47.188;8.896;2022-12-18T14:33:19;0.90;99.90
30678;DHT22;17437;47.188;8.896;2022-12-18T14:35:57;0.90;99.90
30678;DHT22;17437;47.188;8.896;2022-12-18T14:38:30;0.90;99.90
30678;DHT22;17437;47.188;8.896;2022-12-18T14:41:04;0.90;99.90
30678;DHT22;17437;47.188;8.896;2022-12-18T14:43:38;0.80;99.90
30678;DHT22;17437;47.188;8.896;2022-12-18T14:46:28;0.80;99.90
30678;DHT22;17437;47.188;8.896;2022-12-18T14:49:02;0.70;99.90
30678;DHT22;17437;47.188;8.896;2022-12-18T14:51:35;0.60;99.90
30678;DHT22;17437;47.188;8.896;2022-12-18T14:54:14;0.50;99.90
30678;DHT22;17437;47.188;8.896;2022-12-18T14:56:47;0.30;99.90
30678;DHT22;17437;47.188;8.896;2022-12-18T14:59:20;0.20;99.90
30678;DHT22;17437;47.188;8.896;2022-12-18T15:01:59;0.10;99.90
30678;DHT22;17437;47.188;8.896;2022-12-18T15:04:35;0.00;99.90
30678;DHT22;17437;47.188;8.896;2022-12-18T15:07:12;-0.10;99.90
30678;DHT22;17437;47.188;8.896;2022-12-18T15:09:47;-0.20;99.90
30678;DHT22;17437;47.188;8.896;2022-12-18T15:12:33;-0.20;99.90
30678;DHT22;17437;47.188;8.896;2022-12-18T15:15:02;-0.30;99.90
30678;DHT22;17437;47.188;8.896;2022-12-18T15:17:34;-0.40;99.90
30678;DHT22;17437;47.188;8.896;2022-12-18T15:20:11;-0.50;99.90
30678;DHT22;17437;47.188;8.896;2022-12-18T15:22:42;-0.60;99.90
30678;DHT22;17437;47.188;8.896;2022-12-18T15:25:25;-0.80;99.90
30678;DHT22;17437;47.188;8.896;2022-12-18T15:27:56;-0.90;99.90
30678;DHT22;17437;47.188;8.896;2022-12-18T15:30:28;-1.00;99.90
30678;DHT22;17437;47.188;8.896;2022-12-18T15:33:23;-1.10;99.90
30678;DHT22;17437;47.188;8.896;2022-12-18T15:35:59;-1.20;99.90
30678;DHT22;17437;47.188;8.896;2022-12-18T15:38:31;-1.30;99.90
30678;DHT22;17437;47.188;8.896;2022-12-18T15:41:11;-1.30;99.90
30678;DHT22;17437;47.188;8.896;2022-12-18T15:43:43;-1.40;99.90
30678;DHT22;17437;47.188;8.896;2022-12-18T15:46:17;-1.40;99.90
30678;DHT22;17437;47.188;8.896;2022-12-18T15:48:50;-1.50;99.90
30678;DHT22;17437;47.188;8.896;2022-12-18T15:51:26;-1.60;99.90
30678;DHT22;17437;47.188;8.896;2022-12-18T15:54:00;-1.70;99.90
30678;DHT22;17437;47.188;8.896;2022-12-18T15:56:33;-1.80;99.90
30678;DHT22;17437;47.188;8.896;2022-12-18T15:59:23;-1.90;99.90
30678;DHT22;17437;47.188;8.896;2022-12-18T16:01:55;-2.00;99.90
30678;DHT22;17437;47.188;8.896;2022-12-18T16:04:26;-2.00;99.90
30678;DHT22;17437;47.188;8.896;2022-12-18T16:06:58;-2.10;99.90
30678;DHT22;17437;47.188;8.896;2022-12-18T16:09:31;-2.20;99.90
30678;DHT22;17437;47.188;8.896;2022-12-18T16:12:02;-2.20;99.90
30678;DHT22;17437;47.188;8.896;2022-12-18T16:14:34;-2.30;99.90
30678;DHT22;17437;47.188;8.896;2022-12-18T16:17:09;-2.30;99.90
30678;DHT22;17437;47.188;8.896;2022-12-18T16:19:41;-2.40;99.90
30678;DHT22;17437;47.188;8.896;2022-12-18T16:22:19;-2.40;99.90
30678;DHT22;17437;47.188;8.896;2022-12-18T16:24:55;-2.50;99.90
30678;DHT22;17437;47.188;8.896;2022-12-18T16:27:27;-2.40;99.90
30678;DHT22;17437;47.188;8.896;2022-12-18T16:29:58;-2.40;99.90
30678;DHT22;17437;47.188;8.896;2022-12-18T16:32:29;-2.40;99.90